Time;durP1;ratioP1;P1;durP2;ratioP2;P2;SDS_P1;SDS_P2;PMS_P1;PMS_P2;Temp;Humidity;BMP_temperature;BMP_pressure;BME280_temperature;BME280_humidity;BME280_pressure;Samples;Min_cycle;Max_cycle;Signal;HPM_P1;HPM_P2
2023/09/12 00:02:02;;;;;;;7.23;3.10;;;17.30;78.60;;;17.67;52.37;95123.16;5084014;28;20507;-61
2023/09/12 00:04:29;;;;;;;7.90;4.00;;;17.30;78.90;;;17.67;52.62;95125.00;5081732;28;20466;-60
2023/09/12 00:06:57;;;;;;;6.40;3.23;;;17.30;79.30;;;17.66;52.72;95131.31;5083747;28;20454;-63
2023/09/12 00:09:24;;;;;;;5.33;3.50;;;17.30;79.80;;;17.63;52.35;95126.34;5081622;28;20497;-60
2023/09/12 00:11:51;;;;;;;16.67;3.53;;;17.20;79.20;;;17.59;52.95;95125.91;5084183;28;20450;-65
2023/09/12 00:14:19;;;;;;;5.40;3.30;;;17.20;79.60;;;17.58;52.90;95129.53;5084175;28;20474;-64
2023/09/12 00:16:46;;;;;;;6.93;3.30;;;17.20;80.40;;;17.55;53.16;95122.78;5080622;28;20558;-65
2023/09/12 00:19:15;;;;;;;6.43;3.20;;;17.10;81.00;;;17.53;53.20;95127.41;5080740;28;20545;-66
2023/09/12 00:21:42;;;;;;;6.80;3.13;;;17.10;80.90;;;17.50;52.98;95127.78;5083303;28;20466;-60
2023/09/12 00:24:10;;;;;;;8.03;3.50;;;17.10;81.30;;;17.49;53.23;95136.78;5085977;28;20477;-63
2023/09/12 00:26:37;;;;;;;9.07;3.93;;;17.10;81.50;;;17.47;53.25;95128.13;5082785;28;20466;-62
2023/09/12 00:29:04;;;;;;;7.60;3.23;;;17.10;82.10;;;17.47;53.18;95132.63;5077340;28;21670;-59
2023/09/12 00:31:31;;;;;;;7.87;3.13;;;17.10;82.20;;;17.46;53.32;95131.81;5078826;28;20454;-63
2023/09/12 00:33:59;;;;;;;3.53;3.20;;;17.10;82.60;;;17.44;53.83;95133.78;5087075;28;20478;-61
2023/09/12 00:36:27;;;;;;;3.30;3.00;;;17.00;83.30;;;17.43;53.60;95136.63;5083007;28;20922;-58
2023/09/12 00:38:55;;;;;;;4.83;3.10;;;17.00;83.00;;;17.39;53.54;95133.50;5085814;28;20470;-64
2023/09/12 00:41:22;;;;;;;7.63;2.97;;;17.00;83.00;;;17.37;53.78;95136.34;5083278;28;20460;-64
2023/09/12 00:43:49;;;;;;;5.93;3.10;;;17.00;83.10;;;17.34;53.68;95133.22;5080647;28;20474;-61
2023/09/12 00:46:19;;;;;;;6.53;2.97;;;16.90;83.20;;;17.32;53.74;95140.50;5083707;28;20480;-61
2023/09/12 00:48:47;;;;;;;6.07;3.57;;;16.90;83.80;;;17.29;54.30;95141.72;5086620;28;20482;-64
2023/09/12 00:51:14;;;;;;;3.73;2.90;;;16.90;84.60;;;17.27;54.32;95148.19;5080961;28;20454;-63
2023/09/12 00:53:43;;;;;;;4.37;3.00;;;16.90;84.70;;;17.25;54.49;95139.56;5081594;28;20493;-64
2023/09/12 00:56:10;;;;;;;6.50;3.33;;;16.80;84.90;;;17.22;54.47;95148.72;5086186;28;20591;-64
2023/09/12 00:58:38;;;;;;;5.90;3.03;;;16.80;85.30;;;17.20;54.28;95140.91;5079051;28;20479;-63
2023/09/12 01:01:05;;;;;;;8.10;3.80;;;16.80;85.30;;;17.19;54.46;95151.72;5081754;28;21183;-64
2023/09/12 01:03:32;;;;;;;10.93;3.20;;;16.80;86.00;;;17.17;54.47;95145.75;5087449;28;20494;-60
2023/09/12 01:06:00;;;;;;;7.60;3.30;;;16.80;86.30;;;17.14;54.61;95149.59;5085342;28;20523;-64
2023/09/12 01:08:27;;;;;;;5.33;3.07;;;16.80;86.30;;;17.13;54.32;95153.22;5081388;28;20466;-60
2023/09/12 01:10:56;;;;;;;6.67;3.17;;;16.70;86.10;;;17.12;54.51;95156.09;5080499;28;20454;-60
2023/09/12 01:13:24;;;;;;;3.47;3.17;;;16.70;86.50;;;17.09;54.69;95156.44;5084653;28;20450;-64
2023/09/12 01:15:51;;;;;;;4.40;3.03;;;16.70;86.50;;;17.05;54.51;95155.94;5083308;28;20481;-60
2023/09/12 01:18:18;;;;;;;3.50;3.20;;;16.70;86.70;;;17.04;54.47;95156.97;5079479;28;20490;-63
2023/09/12 01:21:12;;;;;;;4.73;3.10;;;16.70;86.90;;;17.02;55.12;95161.59;5086274;28;20446;-61
2023/09/12 01:23:48;;;;;;;3.70;3.07;;;16.60;87.30;;;16.98;54.63;95155.00;5079224;28;20466;-64
2023/09/12 01:26:43;;;;;;;3.73;2.97;;;16.60;87.30;;;16.96;55.61;95160.47;5081407;28;20458;-59
2023/09/12 01:29:12;;;;;;;5.13;3.30;;;16.60;88.70;;;16.95;54.90;95168.63;5080991;28;20995;-63
2023/09/12 01:31:40;;;;;;;4.60;2.90;;;16.60;87.70;;;16.93;54.66;95163.47;5081243;28;20838;-64
2023/09/12 01:34:11;;;;;;;9.40;2.77;;;16.60;87.60;;;16.91;54.70;95161.97;5080621;28;20558;-60
2023/09/12 01:36:38;;;;;;;6.53;3.07;;;16.50;87.70;;;16.88;55.09;95157.00;5082656;28;20568;-65
2023/09/12 01:39:06;;;;;;;4.13;3.13;;;16.50;87.80;;;16.84;55.09;95154.66;5082693;28;20527;-60
2023/09/12 01:41:35;;;;;;;3.90;2.90;;;16.50;87.60;;;16.83;54.73;95158.31;5083393;28;21035;-59
2023/09/12 01:44:03;;;;;;;5.20;2.60;;;16.40;87.50;;;16.81;54.65;95157.66;5081054;28;20496;-64
2023/09/12 01:46:32;;;;;;;11.47;3.57;;;16.40;87.80;;;16.80;54.68;95161.31;5080929;28;20448;-64
2023/09/12 01:48:59;;;;;;;3.83;3.10;;;16.40;88.00;;;16.79;54.71;95158.81;5081368;28;20474;-64
2023/09/12 01:51:26;;;;;;;3.67;2.77;;;16.40;87.90;;;16.77;54.75;95161.66;5077963;28;20463;-61
2023/09/12 01:53:53;;;;;;;5.47;3.23;;;16.40;88.30;;;16.77;54.69;95163.50;5083135;28;20477;-63
2023/09/12 01:56:20;;;;;;;7.63;3.17;;;16.40;88.00;;;16.73;54.90;95170.97;5082534;28;20530;-59
2023/09/12 01:58:48;;;;;;;4.93;2.90;;;16.40;88.00;;;16.69;54.97;95161.69;5080985;28;21010;-60
2023/09/12 02:01:16;;;;;;;4.57;3.20;;;16.30;88.20;;;16.64;55.00;95167.50;5079820;28;20467;-60
2023/09/12 02:03:44;;;;;;;11.00;3.93;;;16.30;88.30;;;16.61;54.89;95167.03;5081464;28;20481;-61
2023/09/12 02:06:12;;;;;;;4.40;2.83;;;16.20;88.40;;;16.56;55.31;95166.69;5079492;28;20459;-58
2023/09/12 02:08:39;;;;;;;10.33;3.07;;;16.20;88.40;;;16.51;55.12;95169.03;5082096;28;20474;-60
2023/09/12 02:11:06;;;;;;;3.43;3.13;;;16.10;88.30;;;16.44;55.47;95175.00;5081943;28;20458;-65
2023/09/12 02:13:33;;;;;;;7.70;3.23;;;16.10;88.80;;;16.39;55.17;95174.69;5078401;28;20554;-64
2023/09/12 02:16:02;;;;;;;6.63;3.03;;;16.00;89.10;;;16.36;55.14;95168.88;5078378;28;20952;-63
2023/09/12 02:18:29;;;;;;;4.13;2.83;;;16.00;89.50;;;16.31;55.57;95166.72;5082035;28;20493;-62
2023/09/12 02:20:59;;;;;;;11.90;2.80;;;16.00;89.90;;;16.26;55.64;95159.28;5078538;28;20462;-60
2023/09/12 02:23:26;;;;;;;9.63;3.17;;;15.90;90.00;;;16.22;55.86;95175.69;5073281;28;20950;-61
2023/09/12 02:25:53;;;;;;;3.57;3.27;;;15.90;90.10;;;16.17;55.99;95168.22;5079203;28;20466;-60
2023/09/12 02:28:21;;;;;;;9.43;4.17;;;15.80;90.20;;;16.15;55.87;95177.38;5078583;28;20539;-66
2023/09/12 02:30:48;;;;;;;4.13;3.03;;;15.80;90.40;;;16.10;56.03;95173.38;5078773;28;20977;-64
2023/09/12 02:33:15;;;;;;;10.83;3.60;;;15.80;90.40;;;16.07;55.96;95173.72;5081031;28;20542;-63
2023/09/12 02:35:43;;;;;;;8.03;4.10;;;15.70;90.50;;;16.06;56.01;95173.88;5081666;28;20511;-60
2023/09/12 02:38:11;;;;;;;8.13;3.10;;;15.70;90.60;;;16.04;56.01;95173.22;5080417;28;20479;-64
2023/09/12 02:40:39;;;;;;;3.83;2.97;;;15.70;90.70;;;16.03;56.19;95177.69;5082507;28;20993;-60
2023/09/12 02:43:06;;;;;;;12.63;3.30;;;15.70;90.80;;;16.02;56.27;95176.06;5081263;28;20519;-65
2023/09/12 02:45:33;;;;;;;5.83;3.20;;;15.70;90.80;;;16.00;56.51;95174.56;5075858;28;20497;-60
2023/09/12 02:48:00;;;;;;;21.13;4.67;;;15.70;91.10;;;15.98;56.71;95177.38;5078265;28;20467;-64
2023/09/12 02:50:28;;;;;;;13.73;4.13;;;15.60;91.40;;;15.96;57.10;95174.06;5080216;28;21017;-64
2023/09/12 02:52:55;;;;;;;4.80;3.50;;;15.60;91.50;;;15.96;56.88;95184.66;5081569;28;20462;-61
2023/09/12 02:55:24;;;;;;;19.03;3.83;;;15.60;91.70;;;15.94;57.04;95176.03;5084139;28;20513;-64
2023/09/12 02:57:51;;;;;;;12.03;3.60;;;15.60;91.70;;;15.88;57.05;95172.22;5078635;28;20532;-60
2023/09/12 03:00:19;;;;;;;5.00;3.63;;;15.60;91.70;;;15.93;57.13;95179.69;5079426;28;21087;-63
2023/09/12 03:02:47;;;;;;;6.83;4.30;;;15.60;92.00;;;15.92;57.41;95180.69;5085097;28;20529;-61
2023/09/12 03:05:14;;;;;;;4.90;3.70;;;15.60;92.20;;;15.91;57.37;95173.72;5081209;28;20477;-59
2023/09/12 03:07:41;;;;;;;4.60;3.27;;;15.60;92.30;;;15.89;57.27;95175.72;5080994;28;20454;-65
2023/09/12 03:10:09;;;;;;;8.90;4.37;;;15.60;92.40;;;15.88;57.70;95177.53;5078523;28;20558;-61
2023/09/12 03:12:38;;;;;;;10.33;3.60;;;15.50;92.60;;;15.88;57.62;95171.38;5085715;28;20492;-64
2023/09/12 03:15:07;;;;;;;5.70;3.77;;;15.60;92.70;;;15.88;57.79;95174.03;5081142;28;21009;-64
2023/09/12 03:17:34;;;;;;;7.03;3.10;;;15.50;92.80;;;15.87;57.79;95175.06;5087434;28;20513;-65
2023/09/12 03:20:02;;;;;;;4.20;3.00;;;15.50;92.80;;;15.86;58.07;95168.06;5079128;28;20474;-59
2023/09/12 03:22:32;;;;;;;3.57;3.27;;;15.50;93.00;;;15.84;57.78;95178.03;5080635;28;20463;-62
2023/09/12 03:24:59;;;;;;;3.77;3.40;;;15.50;92.90;;;15.82;58.02;95170.25;5080959;28;20474;-65
2023/09/12 03:27:26;;;;;;;5.00;2.80;;;15.50;93.10;;;15.81;58.24;95181.00;5075839;28;20450;-61
2023/09/12 03:29:55;;;;;;;8.30;5.40;;;15.50;93.10;;;15.81;58.05;95188.97;5079740;28;20489;-61
2023/09/12 03:32:22;;;;;;;18.83;4.93;;;15.50;93.10;;;15.79;58.27;95181.19;5078904;28;20461;-64
2023/09/12 03:34:49;;;;;;;6.13;3.60;;;15.40;93.20;;;15.77;58.18;95184.00;5080166;28;20478;-64
2023/09/12 03:37:17;;;;;;;6.53;4.30;;;15.40;93.20;;;15.75;58.10;95175.34;5077948;28;20861;-65
2023/09/12 03:39:44;;;;;;;28.90;4.67;;;15.40;93.30;;;15.74;57.95;95180.81;5077383;28;20975;-60
2023/09/12 03:42:11;;;;;;;11.20;3.63;;;15.40;93.30;;;15.72;58.18;95183.63;5083480;28;20450;-63
2023/09/12 03:44:38;;;;;;;4.93;3.87;;;15.40;93.40;;;15.72;58.28;95188.94;5079755;28;21005;-64
2023/09/12 03:47:07;;;;;;;13.60;5.20;;;15.40;93.60;;;15.71;58.26;95186.44;5070806;28;20455;-64
2023/09/12 03:49:34;;;;;;;5.07;4.23;;;15.40;93.50;;;15.69;58.37;95180.47;5080370;28;20892;-65
2023/09/12 03:52:02;;;;;;;8.50;5.03;;;15.40;93.60;;;15.68;58.32;95184.94;5078951;28;20458;-65
2023/09/12 03:54:30;;;;;;;19.27;4.70;;;15.30;93.50;;;15.67;58.12;95188.56;5079877;28;20565;-65
2023/09/12 03:56:57;;;;;;;9.47;4.23;;;15.30;93.50;;;15.66;58.46;95192.25;5076731;28;20508;-64
2023/09/12 03:59:24;;;;;;;24.47;5.10;;;15.30;93.70;;;15.67;58.55;95185.94;5084895;28;20822;-59
2023/09/12 04:01:51;;;;;;;7.50;5.60;;;15.30;93.90;;;15.67;58.66;95185.09;5079737;28;20454;-59
2023/09/12 04:04:20;;;;;;;16.23;5.23;;;15.30;93.90;;;15.66;58.30;95186.09;5088113;28;20542;-65
2023/09/12 04:06:48;;;;;;;8.90;4.47;;;15.30;93.70;;;15.65;58.70;95182.63;5088864;28;20456;-65
2023/09/12 04:09:15;;;;;;;9.90;4.37;;;15.30;94.00;;;15.65;58.41;95187.09;5088701;28;20534;-61
2023/09/12 04:11:42;;;;;;;10.90;4.17;;;15.30;93.70;;;15.66;58.38;95186.94;5089748;28;20453;-65
2023/09/12 04:14:09;;;;;;;10.47;5.20;;;15.30;93.90;;;15.67;58.26;95193.88;5091279;28;20476;-64
2023/09/12 04:16:37;;;;;;;8.57;4.43;;;15.30;93.80;;;15.69;58.72;95191.06;5089702;28;20457;-65
2023/09/12 04:19:05;;;;;;;11.03;4.27;;;15.30;94.00;;;15.69;58.41;95189.25;5082514;28;20869;-65
2023/09/12 04:21:34;;;;;;;11.50;4.90;;;15.30;93.80;;;15.68;58.36;95192.91;5082340;28;20493;-64
2023/09/12 04:24:01;;;;;;;13.80;4.90;;;15.30;93.70;;;15.67;58.71;95196.53;5086393;28;21033;-60
2023/09/12 04:26:28;;;;;;;6.70;4.30;;;15.40;94.10;;;15.66;58.79;95192.25;5088949;28;20446;-60
2023/09/12 04:28:56;;;;;;;17.10;5.17;;;15.30;94.20;;;15.65;58.65;95190.56;5084766;28;20517;-64
2023/09/12 04:31:23;;;;;;;9.30;5.30;;;15.30;94.00;;;15.65;58.72;95195.88;5081963;28;20454;-64
2023/09/12 04:33:52;;;;;;;9.63;4.50;;;15.30;94.10;;;15.65;58.96;95190.56;5086290;28;20490;-60
2023/09/12 04:36:19;;;;;;;9.10;4.40;;;15.30;94.30;;;15.67;59.08;95195.72;5081383;28;20477;-65
2023/09/12 04:38:48;;;;;;;13.80;5.07;;;15.30;94.30;;;15.69;58.87;95196.38;5083823;28;20490;-67
2023/09/12 04:41:16;;;;;;;16.57;4.80;;;15.40;94.40;;;15.72;58.94;95201.34;5082776;28;20466;-64
2023/09/12 04:43:44;;;;;;;11.40;4.63;;;15.40;94.40;;;15.76;58.65;95206.16;5084966;28;20572;-60
2023/09/12 04:46:11;;;;;;;13.93;4.87;;;15.40;94.40;;;15.81;59.08;95210.19;5085823;28;20458;-61
2023/09/12 04:48:39;;;;;;;13.27;4.93;;;15.40;94.40;;;15.84;58.80;95204.56;5081663;28;20465;-60
2023/09/12 04:51:06;;;;;;;8.70;4.80;;;15.50;94.40;;;15.90;58.75;95209.22;5079697;28;20458;-60
2023/09/12 04:53:35;;;;;;;17.30;5.20;;;15.50;94.40;;;15.99;58.68;95208.22;5082097;28;20469;-59
2023/09/12 04:56:03;;;;;;;26.80;5.73;;;15.60;94.80;;;16.03;58.84;95209.53;5082154;28;20542;-61
2023/09/12 04:58:31;;;;;;;20.37;4.57;;;15.70;94.50;;;16.15;58.41;95210.03;5081669;28;20490;-66
2023/09/12 05:00:58;;;;;;;14.47;4.80;;;15.80;94.40;;;16.23;58.39;95215.34;5085054;28;20457;-61
2023/09/12 05:03:25;;;;;;;12.90;5.90;;;15.80;94.20;;;16.34;57.95;95216.00;5085602;28;20507;-64
2023/09/12 05:05:53;;;;;;;18.00;6.00;;;15.90;94.00;;;16.42;57.88;95214.19;5081103;28;20454;-66
2023/09/12 05:08:21;;;;;;;16.80;5.90;;;16.00;93.90;;;16.49;57.71;95220.47;5084343;28;20471;-60
2023/09/12 05:10:48;;;;;;;22.70;5.30;;;16.10;93.60;;;16.53;57.37;95215.66;5085930;28;20549;-68
2023/09/12 05:13:17;;;;;;;14.17;6.30;;;16.10;93.40;;;16.63;57.19;95207.50;5083122;28;20970;-67
2023/09/12 05:15:44;;;;;;;13.50;5.83;;;16.30;93.40;;;16.74;57.16;95211.66;5083714;28;20468;-65
2023/09/12 05:18:11;;;;;;;18.43;7.50;;;16.40;93.30;;;16.83;57.29;95207.97;5080744;28;20493;-66
2023/09/12 05:20:39;;;;;;;13.40;6.07;;;16.50;93.20;;;16.92;56.80;95222.09;5079658;28;20453;-60
2023/09/12 05:23:06;;;;;;;18.73;7.20;;;16.50;93.10;;;16.97;57.03;95222.41;5082916;28;20513;-61
2023/09/12 05:25:33;;;;;;;24.07;7.60;;;16.60;93.00;;;17.02;56.91;95222.72;5084272;28;20588;-60
2023/09/12 05:28:01;;;;;;;26.07;7.20;;;16.60;92.80;;;17.09;56.40;95215.72;5085046;28;20447;-67
2023/09/12 05:30:29;;;;;;;18.93;6.33;;;16.70;92.60;;;17.18;56.33;95225.34;5080016;28;20899;-59
2023/09/12 05:32:56;;;;;;;14.20;5.70;;;16.80;92.30;;;17.29;56.11;95215.31;5070935;28;20443;-60
2023/09/12 05:35:24;;;;;;;11.03;5.40;;;16.90;92.30;;;17.36;55.83;95216.28;5082826;28;21114;-60
2023/09/12 05:37:51;;;;;;;17.87;5.03;;;16.90;91.90;;;17.45;55.68;95220.56;5082899;28;20498;-60
2023/09/12 05:40:19;;;;;;;12.10;5.60;;;17.00;91.70;;;17.64;55.32;95224.59;5082988;28;20540;-60
2023/09/12 05:42:46;;;;;;;11.70;5.50;;;17.20;91.60;;;17.88;54.89;95220.16;5083229;28;20458;-61
2023/09/12 05:45:13;;;;;;;15.53;3.80;;;17.40;91.50;;;18.10;54.53;95223.84;5087226;28;20889;-66
2023/09/12 05:47:42;;;;;;;14.50;5.27;;;17.50;91.10;;;18.34;54.46;95224.66;5082076;28;20482;-66
2023/09/12 05:50:10;;;;;;;19.20;5.30;;;17.80;90.90;;;18.56;53.70;95221.16;5077570;28;21043;-66
2023/09/12 05:52:37;;;;;;;9.67;4.43;;;18.00;90.50;;;18.80;53.74;95222.72;5084423;28;20457;-66
2023/09/12 05:55:05;;;;;;;9.77;4.60;;;18.20;90.20;;;19.05;52.96;95229.69;5085435;28;20529;-66
2023/09/12 05:57:33;;;;;;;11.57;4.83;;;18.40;89.80;;;19.30;52.77;95224.91;5075917;28;20471;-61
2023/09/12 06:00:00;;;;;;;11.63;4.73;;;18.70;89.30;;;19.54;52.21;95218.44;5079373;28;20547;-66
2023/09/12 06:02:28;;;;;;;21.80;5.00;;;18.90;88.10;;;19.80;51.89;95217.94;5083163;28;20458;-66
2023/09/12 06:04:57;;;;;;;4.47;3.90;;;19.20;86.80;;;20.04;51.28;95216.75;5082527;28;20558;-62
2023/09/12 06:07:24;;;;;;;9.80;3.97;;;19.40;85.50;;;20.30;50.84;95226.03;5083821;28;20535;-67
2023/09/12 06:09:52;;;;;;;13.73;5.00;;;19.70;84.70;;;20.56;50.49;95221.97;5084400;28;20470;-66
2023/09/12 06:12:19;;;;;;;10.90;4.40;;;19.90;83.20;;;20.78;49.77;95220.91;5081703;28;20461;-61
2023/09/12 06:14:46;;;;;;;6.83;4.30;;;20.20;81.80;;;21.03;49.04;95222.31;5081344;28;20526;-65
2023/09/12 06:17:14;;;;;;;7.23;4.20;;;20.40;80.20;;;21.28;48.63;95222.66;5081302;28;21031;-67
2023/09/12 06:19:41;;;;;;;10.13;3.93;;;20.70;79.20;;;21.52;48.24;95237.44;5089781;28;20501;-61
2023/09/12 06:22:10;;;;;;;33.07;4.80;;;20.90;78.00;;;21.76;47.70;95229.91;5080113;28;20446;-61
2023/09/12 06:24:39;;;;;;;8.90;4.57;;;21.10;76.70;;;22.03;47.15;95238.84;5082420;28;20500;-65
2023/09/12 06:27:06;;;;;;;9.83;3.80;;;21.40;75.40;;;22.29;46.81;95235.41;5081204;28;20827;-66
2023/09/12 06:29:33;;;;;;;12.33;3.50;;;21.70;74.30;;;22.56;46.22;95238.13;5079321;28;20489;-60
2023/09/12 06:32:02;;;;;;;8.73;4.77;;;21.90;73.50;;;22.83;45.45;95244.31;5080655;28;20446;-64
2023/09/12 06:34:29;;;;;;;12.67;4.87;;;22.10;72.30;;;23.10;44.75;95247.03;5080664;28;20554;-66
2023/09/12 06:36:56;;;;;;;6.47;3.90;;;22.40;71.00;;;23.35;44.95;95241.81;5082077;28;20524;-66
2023/09/12 06:39:25;;;;;;;6.30;4.13;;;22.70;69.70;;;23.62;43.83;95244.41;5080453;28;20497;-64
2023/09/12 06:41:53;;;;;;;7.77;3.67;;;22.90;69.30;;;23.91;43.59;95242.25;5078056;28;20478;-62
2023/09/12 06:44:20;;;;;;;14.97;3.83;;;23.20;68.50;;;24.18;43.53;95240.22;5074732;28;20493;-66
2023/09/12 06:46:47;;;;;;;8.47;4.87;;;23.50;67.20;;;24.47;43.00;95235.31;5078785;28;20459;-64
2023/09/12 06:49:14;;;;;;;7.00;3.63;;;23.80;66.10;;;24.74;42.28;95235.97;5084709;28;20847;-62
2023/09/12 06:51:42;;;;;;;8.33;4.20;;;24.00;65.40;;;25.05;42.19;95248.53;5082435;28;20446;-62
2023/09/12 06:54:09;;;;;;;10.00;3.53;;;24.30;64.50;;;25.34;41.46;95243.50;5080464;28;20462;-63
2023/09/12 06:56:38;;;;;;;3.77;3.07;;;24.60;63.80;;;25.63;40.98;95243.81;5077608;28;20451;-63
2023/09/12 06:59:05;;;;;;;6.17;3.73;;;24.90;63.10;;;25.94;40.37;95239.28;5079782;28;20528;-62
2023/09/12 07:01:33;;;;;;;4.63;3.87;;;25.20;61.10;;;26.24;39.95;95249.28;5080044;28;20846;-62
2023/09/12 07:04:00;;;;;;;13.63;3.80;;;25.50;61.00;;;26.53;39.03;95249.53;5083259;28;20471;-62
2023/09/12 07:06:27;;;;;;;7.03;3.80;;;25.80;59.20;;;26.74;38.54;95253.56;5069235;28;20450;-63
2023/09/12 07:08:55;;;;;;;10.50;3.17;;;26.00;59.20;;;27.00;38.16;95255.00;5079187;28;20488;-62
2023/09/12 07:11:24;;;;;;;7.00;2.77;;;26.30;58.50;;;27.22;37.36;95254.44;5076657;28;20461;-63
2023/09/12 07:13:52;;;;;;;7.63;3.37;;;26.50;57.10;;;27.32;37.50;95255.53;5077786;28;20470;-63
2023/09/12 07:16:20;;;;;;;15.83;3.77;;;26.60;57.00;;;27.57;36.71;95250.94;5081092;28;20458;-63
2023/09/12 07:18:48;;;;;;;4.90;2.97;;;26.80;56.50;;;27.89;36.36;95249.44;5076767;28;20501;-62
2023/09/12 07:21:16;;;;;;;14.63;3.60;;;27.10;56.20;;;28.22;36.43;95242.53;5077600;28;20459;-60
2023/09/12 07:23:43;;;;;;;7.07;3.20;;;27.40;55.70;;;28.46;35.37;95247.84;5084524;28;20474;-69
2023/09/12 07:26:13;;;;;;;9.20;2.90;;;27.70;54.90;;;28.75;35.33;95242.41;5087044;28;20460;-70
2023/09/12 07:28:41;;;;;;;15.33;3.37;;;27.90;54.40;;;29.12;35.50;95250.84;5078789;28;20490;-66
2023/09/12 07:31:09;;;;;;;9.73;4.73;;;28.30;54.00;;;29.48;34.84;95256.03;5083734;28;20515;-67
2023/09/12 07:33:37;;;;;;;5.17;2.93;;;28.60;52.90;;;29.69;33.87;95254.41;5081672;28;20482;-68
2023/09/12 07:36:05;;;;;;;5.57;3.53;;;28.90;52.50;;;30.02;33.19;95252.69;5083861;28;20443;-65
2023/09/12 07:38:35;;;;;;;21.10;2.97;;;29.10;52.10;;;30.48;32.99;95247.78;5087014;28;20488;-64
2023/09/12 07:41:02;;;;;;;13.13;3.63;;;29.50;51.60;;;30.99;33.47;95252.91;5081206;28;20486;-66
2023/09/12 07:43:30;;;;;;;15.07;3.67;;;30.10;50.90;;;31.54;32.23;95244.59;5086894;28;20471;-66
2023/09/12 07:45:57;;;;;;;6.90;3.40;;;30.70;50.40;;;32.02;31.55;95250.00;5085406;28;20453;-66
2023/09/12 07:48:26;;;;;;;9.67;3.37;;;31.30;49.00;;;32.21;30.49;95245.75;5083521;28;20238;-61
2023/09/12 07:50:53;;;;;;;9.73;3.53;;;31.70;47.60;;;32.41;30.74;95242.25;5085248;28;20563;-61
2023/09/12 07:53:22;;;;;;;8.73;3.63;;;32.00;47.20;;;32.60;29.87;95239.84;5088400;28;20197;-61
2023/09/12 07:55:50;;;;;;;6.70;3.50;;;32.30;45.80;;;32.64;29.44;95237.38;5078050;28;20202;-64
2023/09/12 07:58:19;;;;;;;10.53;3.87;;;32.40;45.60;;;32.65;29.66;95239.88;5080368;28;20228;-62
2023/09/12 08:00:46;;;;;;;13.45;3.15;;;32.50;45.30;;;32.92;29.79;95246.16;5081028;28;20325;-61
2023/09/12 08:03:14;;;;;;;9.73;2.70;;;32.70;45.50;;;33.33;29.29;95240.72;5087427;28;20200;-63
2023/09/12 08:05:43;;;;;;;14.50;4.20;;;32.90;45.00;;;33.80;28.86;95236.81;5086268;28;20196;-62
2023/09/12 08:08:10;;;;;;;7.40;3.47;;;33.30;44.70;;;34.19;28.82;95236.13;5088163;28;20220;-63
2023/09/12 08:10:37;;;;;;;7.45;3.70;;;33.70;43.70;;;34.56;27.35;95239.47;5091184;28;20230;-62
2023/09/12 08:13:05;;;;;;;10.40;3.35;;;34.00;41.80;;;34.57;26.85;95246.56;5083287;28;20278;-62
2023/09/12 08:15:32;;;;;;;3.13;2.92;;;34.20;40.90;;;34.54;26.45;95242.47;5083507;28;20215;-62
2023/09/12 08:18:00;;;;;;;10.25;3.35;;;34.30;41.40;;;34.71;26.68;95239.38;5087012;28;20282;-67
2023/09/12 08:20:27;;;;;;;7.72;3.95;;;34.50;40.80;;;34.94;26.80;95240.59;5082362;28;20860;-68
2023/09/12 08:22:56;;;;;;;15.02;3.42;;;34.70;40.70;;;35.21;26.55;95244.72;5083609;28;20199;-67
2023/09/12 08:25:24;;;;;;;8.85;3.58;;;35.00;40.20;;;35.44;26.09;95242.38;5084512;28;20238;-65
2023/09/12 08:27:51;;;;;;;5.80;3.65;;;35.30;39.30;;;35.38;26.07;95238.06;5081466;28;20299;-66
2023/09/12 08:30:19;;;;;;;9.98;3.08;;;35.30;39.20;;;35.28;26.26;95239.78;5082628;28;20364;-64
2023/09/12 08:32:46;;;;;;;5.60;3.00;;;35.30;39.30;;;35.27;25.50;95237.34;5085907;28;20254;-63
2023/09/12 08:35:14;;;;;;;11.07;5.00;;;35.20;38.70;;;35.10;25.32;95232.25;5083130;28;20230;-69
2023/09/12 08:37:42;;;;;;;11.43;3.05;;;35.00;38.70;;;35.10;25.89;95227.59;5086994;28;20195;-71
2023/09/12 08:40:12;;;;;;;3.40;2.95;;;34.80;39.10;;;35.19;25.55;95230.53;5081208;28;20228;-69
2023/09/12 08:42:41;;;;;;;10.43;2.35;;;34.90;39.00;;;35.28;25.28;95222.56;5087176;28;20208;-68
2023/09/12 08:45:13;;;;;;;12.35;2.92;;;34.90;38.90;;;35.45;25.43;95228.41;5080844;28;20223;-67
2023/09/12 08:47:42;;;;;;;9.23;3.33;;;34.90;38.70;;;35.60;25.33;95223.88;5086071;28;20242;-68
2023/09/12 08:50:11;;;;;;;14.98;3.80;;;35.00;38.60;;;35.58;25.47;95229.63;5090132;28;20685;-61
2023/09/12 08:52:39;;;;;;;4.05;1.98;;;35.10;38.20;;;35.56;25.26;95217.38;5085540;28;20274;-63
2023/09/12 08:55:07;;;;;;;8.88;3.30;;;35.00;38.20;;;35.67;24.96;95219.69;5085167;28;20256;-68
2023/09/12 08:57:38;;;;;;;8.07;2.85;;;35.00;37.90;;;35.83;24.99;95222.28;5080899;28;20239;-66
2023/09/12 09:00:08;;;;;;;5.15;2.42;;;35.10;38.00;;;35.97;24.61;95222.38;5086135;28;20334;-67
2023/09/12 09:02:36;;;;;;;15.43;3.08;;;35.20;37.50;;;36.01;24.78;95226.97;5082185;28;20187;-70
2023/09/12 09:05:05;;;;;;;15.27;3.05;;;35.30;37.50;;;36.07;24.16;95223.06;5087568;28;20223;-67
2023/09/12 09:07:34;;;;;;;10.90;2.63;;;35.30;37.50;;;36.14;24.79;95221.91;5087651;28;20628;-67
2023/09/12 09:10:03;;;;;;;10.00;2.47;;;35.40;37.40;;;36.21;24.36;95216.88;5088845;28;20219;-65
2023/09/12 09:12:30;;;;;;;7.95;2.63;;;35.40;37.10;;;36.28;23.93;95222.00;5080390;28;20219;-61
2023/09/12 09:14:59;;;;;;;15.15;2.65;;;35.50;36.90;;;36.30;24.18;95215.13;5085963;28;20242;-67
2023/09/12 09:17:27;;;;;;;7.80;2.13;;;35.50;36.90;;;36.32;23.85;95212.09;5077168;28;20200;-67
2023/09/12 09:19:55;;;;;;;8.85;3.00;;;35.60;36.70;;;36.29;24.23;95202.53;5080287;28;20242;-66
2023/09/12 09:22:23;;;;;;;4.90;2.75;;;35.60;36.90;;;36.40;23.95;95209.50;5079846;28;20257;-62
2023/09/12 09:24:51;;;;;;;3.80;2.78;;;35.60;36.90;;;36.50;23.70;95204.97;5081800;28;20220;-68
2023/09/12 09:27:34;;;;;;;12.60;2.60;;;35.70;37.50;;;36.49;23.00;95192.41;5080369;28;20199;-63
2023/09/12 09:30:04;;;;;;;8.77;2.67;;;35.80;35.90;;;36.19;23.13;95194.44;5071315;28;20282;-65
2023/09/12 09:32:31;;;;;;;17.27;3.38;;;35.60;35.80;;;35.83;23.64;95190.22;5070801;28;20196;-62
2023/09/12 09:34:59;;;;;;;13.18;3.03;;;35.20;35.90;;;35.72;23.73;95194.97;5070553;28;20234;-62
2023/09/12 09:37:26;;;;;;;8.27;2.50;;;35.00;35.70;;;35.64;24.28;95192.91;5070714;28;20196;-62
2023/09/12 09:39:54;;;;;;;4.20;2.35;;;34.90;36.20;;;35.69;24.22;95190.09;5070251;28;20301;-61
2023/09/12 09:42:21;;;;;;;17.73;2.72;;;34.90;36.50;;;35.85;24.08;95187.19;5070436;28;20237;-61
2023/09/12 09:44:49;;;;;;;6.38;2.50;;;35.00;36.60;;;35.90;23.10;95184.41;5082362;28;20773;-66
2023/09/12 09:47:18;;;;;;;26.05;3.38;;;35.10;35.50;;;35.70;23.53;95196.41;5078563;28;20240;-62
2023/09/12 09:49:47;;;;;;;9.95;3.17;;;35.00;35.60;;;35.49;22.77;95190.34;5070536;28;20220;-64
2023/09/12 09:52:14;;;;;;;5.57;2.67;;;34.80;35.50;;;35.22;23.61;95180.75;5078995;28;20239;-61
2023/09/12 09:54:45;;;;;;;4.90;3.33;;;34.70;35.60;;;35.07;23.78;95175.41;5069766;28;20585;-68
2023/09/12 09:57:12;;;;;;;35.67;4.00;;;34.40;35.90;;;34.98;24.48;95175.22;5079058;28;20212;-66
2023/09/12 09:59:40;;;;;;;15.52;2.83;;;34.30;36.10;;;34.94;23.33;95169.53;5081933;28;20281;-62
2023/09/12 10:02:07;;;;;;;10.63;3.20;;;34.20;36.10;;;34.95;24.05;95165.69;5070118;28;20204;-67
2023/09/12 10:04:36;;;;;;;6.97;2.60;;;34.20;36.10;;;35.00;23.90;95165.63;5078139;28;20224;-60
2023/09/12 10:07:03;;;;;;;4.45;2.85;;;34.20;36.60;;;35.05;24.06;95169.44;5069740;28;20200;-62
2023/09/12 10:09:31;;;;;;;14.52;3.17;;;34.20;36.40;;;35.11;23.74;95162.81;5078251;28;20236;-61
2023/09/12 10:11:58;;;;;;;10.95;3.17;;;34.20;36.10;;;35.22;23.35;95158.06;5082195;28;20204;-69
2023/09/12 10:14:26;;;;;;;8.23;3.67;;;34.30;36.20;;;35.35;24.17;95163.69;5078259;28;20719;-63
2023/09/12 10:16:55;;;;;;;7.90;3.03;;;34.50;36.30;;;35.54;24.13;95162.94;5081787;28;20206;-69
2023/09/12 10:19:25;;;;;;;17.40;7.45;;;34.60;36.30;;;35.29;23.01;95158.53;5078945;28;20258;-62
2023/09/12 10:22:02;;;;;;;9.68;3.50;;;34.50;35.70;;;35.19;24.09;95149.31;5082834;28;20231;-67